createdAt,value
2023-06-12T00:00:15.983Z,15.54
2023-06-12T00:02:49.569Z,15.48
2023-06-12T00:04:45.945Z,15.42
2023-06-12T00:06:39.442Z,15.39
2023-06-12T00:08:36.176Z,15.35
2023-06-12T00:10:29.227Z,15.30
2023-06-12T00:12:23.105Z,15.27
2023-06-12T00:14:16.262Z,15.28
2023-06-12T00:16:10.473Z,15.28
2023-06-12T00:18:04.217Z,15.25
2023-06-12T00:19:57.255Z,15.23
2023-06-12T00:21:50.400Z,15.23
2023-06-12T00:23:43.676Z,15.22
2023-06-12T00:25:36.909Z,15.22
2023-06-12T00:27:29.979Z,15.23
2023-06-12T00:29:23.420Z,15.20
2023-06-12T00:31:16.504Z,15.18
2023-06-12T00:33:09.622Z,15.15
2023-06-12T00:35:02.882Z,15.14
2023-06-12T00:36:56.338Z,15.14
2023-06-12T00:38:49.590Z,15.15
2023-06-12T00:40:42.950Z,15.12
2023-06-12T00:42:43.890Z,15.08
2023-06-12T00:44:37.347Z,15.02
2023-06-12T00:46:30.648Z,14.99
2023-06-12T00:48:23.757Z,14.97
2023-06-12T00:50:18.984Z,14.94
2023-06-12T00:52:13.338Z,14.93
2023-06-12T00:54:06.490Z,14.90
2023-06-12T00:55:59.548Z,14.85
2023-06-12T00:57:53.720Z,14.81
2023-06-12T00:59:46.770Z,14.80
2023-06-12T01:01:39.811Z,14.80
2023-06-12T01:03:33.494Z,14.80
2023-06-12T01:05:34.710Z,14.80
2023-06-12T01:07:34.844Z,14.79
2023-06-12T01:09:27.895Z,14.77
2023-06-12T01:11:21.865Z,14.75
2023-06-12T01:13:17.828Z,14.73
2023-06-12T01:15:11.763Z,14.71
2023-06-12T01:17:05.641Z,14.69
2023-06-12T01:18:58.902Z,14.69
2023-06-12T01:20:54.700Z,14.68
2023-06-12T01:23:05.060Z,14.66
2023-06-12T01:25:25.037Z,14.65
2023-06-12T01:27:37.043Z,14.63
2023-06-12T01:29:49.232Z,14.62
2023-06-12T01:31:58.041Z,14.61
2023-06-12T01:33:58.063Z,14.61
2023-06-12T01:35:52.955Z,14.59
2023-06-12T01:37:47.439Z,14.58
2023-06-12T01:39:59.252Z,14.56
2023-06-12T01:41:53.616Z,14.54
2023-06-12T01:43:46.765Z,14.51
2023-06-12T01:45:41.972Z,14.48
2023-06-12T01:47:35.138Z,14.46
2023-06-12T01:49:28.269Z,14.44
2023-06-12T01:51:21.229Z,14.42
2023-06-12T01:53:16.920Z,14.37
2023-06-12T01:55:11.236Z,14.34
2023-06-12T01:57:05.185Z,14.32
2023-06-12T01:59:00.291Z,14.31
2023-06-12T02:01:03.079Z,14.30
2023-06-12T02:02:57.777Z,14.28
2023-06-12T02:04:55.538Z,14.26
2023-06-12T02:06:50.405Z,14.25
2023-06-12T02:08:44.250Z,14.24
2023-06-12T02:10:39.596Z,14.26
2023-06-12T02:12:33.552Z,14.25
2023-06-12T02:14:27.113Z,14.23
2023-06-12T02:16:22.836Z,14.20
2023-06-12T02:18:17.678Z,14.18
2023-06-12T02:20:12.224Z,14.16
2023-06-12T02:22:06.689Z,14.14
2023-06-12T02:24:00.223Z,14.13
2023-06-12T02:25:54.123Z,14.13
2023-06-12T02:27:47.283Z,14.15
2023-06-12T02:29:40.635Z,14.14
2023-06-12T02:31:33.940Z,14.13
2023-06-12T02:33:28.880Z,14.11
2023-06-12T02:35:22.449Z,14.08
2023-06-12T02:37:16.065Z,14.04
2023-06-12T02:39:14.397Z,14.03
2023-06-12T02:41:11.944Z,14.00
2023-06-12T02:43:05.403Z,13.98
2023-06-12T02:44:58.550Z,13.98
2023-06-12T02:46:56.114Z,13.97
2023-06-12T02:49:07.389Z,13.94
2023-06-12T02:51:00.859Z,13.91
2023-06-12T02:52:54.001Z,13.88
2023-06-12T02:54:47.470Z,13.84
2023-06-12T02:56:43.386Z,13.85
2023-06-12T02:58:36.642Z,13.84
2023-06-12T03:00:30.141Z,13.85
2023-06-12T03:02:23.623Z,13.86
2023-06-12T03:04:21.694Z,13.88
2023-06-12T03:06:15.492Z,13.87
2023-06-12T03:08:10.014Z,13.85
2023-06-12T03:10:03.139Z,13.85
2023-06-12T03:11:56.284Z,13.91
2023-06-12T03:13:49.643Z,13.93
2023-06-12T03:15:42.963Z,13.95
2023-06-12T03:17:36.171Z,13.93
2023-06-12T03:19:29.613Z,13.90
2023-06-12T03:21:22.868Z,13.91
2023-06-12T03:23:16.840Z,13.92
2023-06-12T03:25:11.894Z,13.95
2023-06-12T03:27:05.293Z,13.99
2023-06-12T03:28:59.272Z,14.02
2023-06-12T03:30:52.766Z,14.06
2023-06-12T03:32:47.319Z,14.11
2023-06-12T03:34:40.876Z,14.16
2023-06-12T03:36:35.447Z,14.19
2023-06-12T03:38:29.024Z,14.20
2023-06-12T03:40:22.182Z,14.21
2023-06-12T03:42:16.581Z,14.22
2023-06-12T03:44:16.576Z,14.24
2023-06-12T03:46:10.033Z,14.27
2023-06-12T03:48:03.149Z,14.32
2023-06-12T03:49:56.853Z,14.36
2023-06-12T03:51:51.074Z,14.37
2023-06-12T03:53:44.488Z,14.42
2023-06-12T03:55:37.962Z,14.49
2023-06-12T03:57:31.214Z,14.55
2023-06-12T03:59:24.256Z,14.64
2023-06-12T04:01:17.613Z,14.74
2023-06-12T04:03:11.019Z,14.81
2023-06-12T04:05:04.639Z,14.90
2023-06-12T04:06:58.604Z,14.98
2023-06-12T04:08:52.995Z,15.06
2023-06-12T04:10:46.456Z,15.14
2023-06-12T04:13:15.981Z,15.24
2023-06-12T04:18:42.654Z,15.53
2023-06-12T04:20:40.209Z,15.61
2023-06-12T04:22:43.705Z,15.68
2023-06-12T04:27:12.794Z,15.82
2023-06-12T04:38:46.036Z,16.15
2023-06-12T04:40:55.347Z,16.10
2023-06-12T04:43:23.238Z,16.06
2023-06-12T04:46:01.804Z,16.05
2023-06-12T04:52:26.629Z,16.08
2023-06-12T04:55:24.020Z,16.19
2023-06-12T05:02:07.097Z,16.34
2023-06-12T05:05:48.456Z,16.40
2023-06-12T05:08:21.407Z,16.49
2023-06-12T05:11:05.711Z,16.52
2023-06-12T05:15:48.647Z,16.73
2023-06-12T05:17:42.355Z,16.84
2023-06-12T05:19:36.696Z,16.92
2023-06-12T05:21:29.849Z,16.95
2023-06-12T05:23:23.304Z,16.99
2023-06-12T05:25:17.306Z,17.03
2023-06-12T05:27:11.865Z,17.10
2023-06-12T05:29:05.221Z,17.20
2023-06-12T05:30:58.399Z,17.29
2023-06-12T05:32:51.627Z,17.36
2023-06-12T05:34:44.779Z,17.39
2023-06-12T05:36:38.445Z,17.43
2023-06-12T05:38:32.311Z,17.51
2023-06-12T05:40:27.821Z,17.60
2023-06-12T05:42:20.974Z,17.66
2023-06-12T05:44:14.229Z,17.75
2023-06-12T05:46:07.496Z,17.86
2023-06-12T05:48:02.086Z,17.93
2023-06-12T05:49:56.127Z,17.99
2023-06-12T05:51:49.835Z,18.04
2023-06-12T05:53:46.795Z,18.08
2023-06-12T05:55:41.037Z,18.13
2023-06-12T05:57:34.494Z,18.17
2023-06-12T05:59:28.464Z,18.23
2023-06-12T06:01:26.442Z,18.33
2023-06-12T06:03:26.680Z,18.41
2023-06-12T06:05:20.653Z,18.55
2023-06-12T06:07:18.592Z,18.65
2023-06-12T06:09:15.328Z,18.73
2023-06-12T06:11:11.127Z,18.75
2023-06-12T06:13:06.236Z,18.76
2023-06-12T06:15:00.232Z,18.84
2023-06-12T06:16:55.233Z,18.96
2023-06-12T06:18:54.200Z,19.05
2023-06-12T06:20:47.658Z,19.21
2023-06-12T06:22:43.065Z,19.41
2023-06-12T06:24:36.651Z,19.56
2023-06-12T06:26:31.043Z,19.62
2023-06-12T06:28:53.245Z,19.73
2023-06-12T06:30:57.384Z,19.89
2023-06-12T06:32:51.562Z,19.95
2023-06-12T06:34:44.889Z,20.06
2023-06-12T06:36:38.352Z,20.20
2023-06-12T06:38:31.518Z,20.29
2023-06-12T06:40:26.028Z,20.45
2023-06-12T06:42:19.368Z,20.63
2023-06-12T06:44:17.441Z,20.81
2023-06-12T06:46:13.656Z,20.97
2023-06-12T06:48:09.044Z,21.09
2023-06-12T06:50:03.431Z,21.21
2023-06-12T06:51:57.904Z,21.34
2023-06-12T06:53:51.469Z,21.47
2023-06-12T06:55:47.386Z,21.61
2023-06-12T06:57:44.237Z,21.72
2023-06-12T06:59:38.206Z,21.75
2023-06-12T07:01:34.806Z,21.77
2023-06-12T07:03:29.233Z,21.86
2023-06-12T07:05:23.240Z,21.91
2023-06-12T07:07:16.670Z,22.01
2023-06-12T07:09:10.034Z,22.13
2023-06-12T07:11:03.485Z,22.26
2023-06-12T07:12:59.921Z,22.45
2023-06-12T07:15:05.100Z,22.67
2023-06-12T07:16:58.635Z,22.74
2023-06-12T07:18:52.179Z,22.84
2023-06-12T07:20:45.655Z,22.95
2023-06-12T07:22:38.989Z,23.07
2023-06-12T07:24:32.968Z,23.21
2023-06-12T07:26:29.343Z,23.30
2023-06-12T07:28:25.469Z,23.37
2023-06-12T07:30:20.950Z,23.35
2023-06-12T07:32:20.650Z,23.35
2023-06-12T07:34:14.087Z,23.38
2023-06-12T07:36:08.371Z,23.43
2023-06-12T07:38:02.455Z,23.53
2023-06-12T07:40:08.159Z,23.61
2023-06-12T07:42:03.089Z,23.68
2023-06-12T07:43:57.512Z,23.73
2023-06-12T07:45:50.841Z,23.67
2023-06-12T07:47:44.364Z,23.64
2023-06-12T07:49:38.252Z,23.74
2023-06-12T07:51:32.941Z,23.80
2023-06-12T07:53:37.700Z,23.86
2023-06-12T07:55:34.689Z,23.95
2023-06-12T07:57:29.441Z,23.97
2023-06-12T07:59:25.109Z,24.02
2023-06-12T08:01:23.840Z,23.91
2023-06-12T08:03:29.616Z,23.78
2023-06-12T08:05:24.626Z,23.62
2023-06-12T08:07:19.112Z,23.46
2023-06-12T08:09:12.317Z,23.32
2023-06-12T08:11:05.760Z,23.23
2023-06-12T08:12:58.879Z,23.14
2023-06-12T08:14:53.191Z,23.06
2023-06-12T08:16:47.776Z,23.02
2023-06-12T08:18:42.049Z,22.98
2023-06-12T08:20:35.800Z,23.11
2023-06-12T08:22:30.889Z,23.18
2023-06-12T08:24:24.372Z,23.09
2023-06-12T08:26:17.408Z,22.94
2023-06-12T08:28:10.764Z,22.78
2023-06-12T08:30:04.636Z,22.65
2023-06-12T08:31:58.093Z,22.54
2023-06-12T08:33:51.244Z,22.51
2023-06-12T08:35:44.700Z,22.53
2023-06-12T08:37:38.272Z,22.72
2023-06-12T08:39:31.416Z,22.99
2023-06-12T08:41:26.412Z,23.33
2023-06-12T08:43:19.566Z,23.58
2023-06-12T08:45:21.564Z,23.83
2023-06-12T08:47:17.650Z,24.05
2023-06-12T08:49:11.005Z,24.23
2023-06-12T08:51:05.389Z,24.41
2023-06-12T08:52:59.561Z,24.54
2023-06-12T08:54:53.176Z,24.69
2023-06-12T08:56:47.819Z,24.85
2023-06-12T08:58:41.069Z,25.03
2023-06-12T09:00:36.087Z,25.22
2023-06-12T09:02:29.728Z,25.39
2023-06-12T09:04:56.345Z,25.43
2023-06-12T09:06:51.771Z,25.52
2023-06-12T09:08:44.721Z,25.63
2023-06-12T09:10:40.143Z,25.72
2023-06-12T09:12:33.219Z,25.75
2023-06-12T09:14:26.330Z,25.73
2023-06-12T09:16:23.188Z,25.71
2023-06-12T09:18:16.709Z,25.60
2023-06-12T09:20:22.364Z,25.48
2023-06-12T09:22:25.666Z,25.14
2023-06-12T09:24:19.268Z,25.00
2023-06-12T09:26:17.178Z,25.00
2023-06-12T09:28:11.886Z,25.09
2023-06-12T09:30:08.624Z,25.26
2023-06-12T09:32:05.597Z,25.44
2023-06-12T09:33:58.917Z,25.58
2023-06-12T09:35:52.794Z,25.67
2023-06-12T09:40:09.324Z,26.04
2023-06-12T09:42:03.716Z,26.25
2023-06-12T09:44:06.160Z,26.32
2023-06-12T09:46:02.195Z,26.29
2023-06-12T09:47:56.932Z,26.21
2023-06-12T09:50:02.314Z,26.10
2023-06-12T09:51:56.601Z,26.02
2023-06-12T09:53:52.720Z,26.00
2023-06-12T09:55:47.158Z,26.03
2023-06-12T09:57:41.632Z,26.14
2023-06-12T09:59:36.767Z,26.17
2023-06-12T10:01:33.785Z,26.04
2023-06-12T10:03:27.732Z,25.94
2023-06-12T10:05:25.343Z,25.87
2023-06-12T10:07:23.935Z,25.86
2023-06-12T10:09:18.220Z,25.95
2023-06-12T10:11:13.355Z,26.00
2023-06-12T10:13:07.294Z,25.97
2023-06-12T10:15:02.071Z,25.98
2023-06-12T10:16:59.222Z,26.03
2023-06-12T10:18:52.272Z,26.13
2023-06-12T10:20:45.939Z,26.16
2023-06-12T10:22:39.659Z,26.19
2023-06-12T10:24:34.088Z,26.16
2023-06-12T10:26:28.148Z,26.07
2023-06-12T10:28:23.563Z,26.02
2023-06-12T10:30:19.074Z,26.09
2023-06-12T10:32:16.079Z,26.18
2023-06-12T10:34:13.582Z,26.07
2023-06-12T10:36:13.389Z,26.02
2023-06-12T10:38:06.572Z,26.03
2023-06-12T10:40:09.021Z,26.02
2023-06-12T10:42:08.114Z,26.03
2023-06-12T10:44:03.505Z,25.98
2023-06-12T10:46:00.190Z,26.00
2023-06-12T10:48:05.964Z,26.13
2023-06-12T10:50:06.810Z,26.20
2023-06-12T10:52:00.904Z,26.19
2023-06-12T10:53:55.498Z,26.14
2023-06-12T10:55:50.904Z,26.18
2023-06-12T10:57:54.217Z,26.17
2023-06-12T10:59:47.372Z,26.09
2023-06-12T11:01:41.118Z,26.07
2023-06-12T11:03:35.961Z,26.09
2023-06-12T11:05:30.425Z,26.25
2023-06-12T11:07:24.897Z,26.39
2023-06-12T11:09:17.945Z,26.50
2023-06-12T11:11:11.775Z,26.58
2023-06-12T11:13:05.247Z,26.51
2023-06-12T11:15:00.700Z,26.50
2023-06-12T11:16:58.245Z,26.55
2023-06-12T11:19:04.677Z,26.51
2023-06-12T11:20:57.923Z,26.49
2023-06-12T11:22:59.171Z,26.43
2023-06-12T11:25:00.272Z,26.31
2023-06-12T11:26:54.885Z,26.24
2023-06-12T11:28:48.042Z,26.26
2023-06-12T11:30:53.415Z,26.26
2023-06-12T11:32:54.978Z,26.23
2023-06-12T11:34:48.088Z,26.21
2023-06-12T11:36:41.447Z,26.17
2023-06-12T11:40:30.520Z,26.03
2023-06-12T11:42:23.705Z,25.95
2023-06-12T11:44:17.950Z,25.87
2023-06-12T11:46:11.745Z,25.86
2023-06-12T11:50:04.110Z,25.84
2023-06-12T11:51:58.133Z,25.79
2023-06-12T11:53:51.490Z,25.83
2023-06-12T11:57:51.527Z,25.79
2023-06-12T11:59:46.822Z,25.76
2023-06-12T12:01:40.707Z,25.72
2023-06-12T12:03:36.462Z,25.72
2023-06-12T12:05:39.500Z,25.68
2023-06-12T12:07:32.651Z,25.64
2023-06-12T12:09:28.978Z,25.66
2023-06-12T12:11:23.431Z,25.67
2023-06-12T12:13:17.224Z,25.62
2023-06-12T12:15:11.736Z,25.53
2023-06-12T12:17:06.320Z,25.52
2023-06-12T12:18:59.449Z,25.51
2023-06-12T12:20:53.418Z,25.52
2023-06-12T12:22:47.814Z,25.57
2023-06-12T12:24:41.161Z,25.55
2023-06-12T12:26:34.761Z,25.47
2023-06-12T12:28:28.081Z,25.39
2023-06-12T12:30:22.767Z,25.40
2023-06-12T12:32:16.642Z,25.42
2023-06-12T12:34:10.364Z,25.44
2023-06-12T12:36:04.388Z,25.44
2023-06-12T12:37:57.739Z,25.37
2023-06-12T12:39:50.896Z,25.33
2023-06-12T12:41:44.063Z,25.31
2023-06-12T12:43:37.104Z,25.28
2023-06-12T12:45:30.264Z,25.27
2023-06-12T12:47:23.586Z,25.29
2023-06-12T12:49:16.857Z,25.31
2023-06-12T12:51:11.236Z,25.30
2023-06-12T12:53:04.702Z,25.21
2023-06-12T12:54:57.783Z,25.18
2023-06-12T12:56:51.022Z,25.16
2023-06-12T12:58:44.160Z,25.20
2023-06-12T13:00:39.637Z,25.25
2023-06-12T13:02:33.025Z,25.25
2023-06-12T13:04:26.586Z,25.23
2023-06-12T13:06:21.849Z,25.27
2023-06-12T13:08:17.097Z,25.22
2023-06-12T13:10:16.068Z,25.13
2023-06-12T13:12:13.771Z,25.10
2023-06-12T13:15:32.432Z,25.03
2023-06-12T13:17:25.490Z,25.04
2023-06-12T13:19:21.160Z,25.08
2023-06-12T13:21:16.770Z,25.12
2023-06-12T13:23:14.173Z,25.14
2023-06-12T13:25:10.757Z,25.15
2023-06-12T13:27:08.410Z,25.13
2023-06-12T13:29:02.793Z,25.10
2023-06-12T13:30:55.879Z,25.07
2023-06-12T13:32:49.341Z,25.04
2023-06-12T13:34:42.877Z,25.03
2023-06-12T13:36:35.918Z,25.02
2023-06-12T13:38:29.774Z,25.06
2023-06-12T13:40:24.758Z,25.07
2023-06-12T13:42:18.349Z,25.06
2023-06-12T13:44:12.461Z,25.07
2023-06-12T13:47:59.789Z,25.10
2023-06-12T13:49:53.940Z,25.11
2023-06-12T13:51:46.998Z,25.14
2023-06-12T13:53:41.066Z,25.18
2023-06-12T13:55:36.977Z,25.18
2023-06-12T13:57:30.235Z,25.15
2023-06-12T13:59:23.283Z,25.08
2023-06-12T14:01:16.373Z,25.04
2023-06-12T14:03:09.832Z,25.05
2023-06-12T14:05:03.603Z,25.08
2023-06-12T14:06:59.817Z,25.09
2023-06-12T14:08:55.665Z,25.14
2023-06-12T14:10:50.021Z,25.15
2023-06-12T14:12:44.733Z,25.11
2023-06-12T14:14:38.682Z,25.12
2023-06-12T14:16:32.066Z,25.13
2023-06-12T14:18:25.176Z,25.15
2023-06-12T14:20:18.312Z,25.15
2023-06-12T14:22:11.503Z,25.07
2023-06-12T14:24:05.648Z,25.03
2023-06-12T14:25:58.900Z,25.03
2023-06-12T14:27:51.948Z,24.99
2023-06-12T14:29:44.996Z,24.99
2023-06-12T14:31:38.094Z,24.99
2023-06-12T14:33:31.530Z,24.97
2023-06-12T14:35:24.760Z,24.96
2023-06-12T14:37:21.200Z,24.95
2023-06-12T14:39:14.343Z,24.96
2023-06-12T14:41:07.708Z,24.96
2023-06-12T14:43:00.686Z,24.97
2023-06-12T14:44:53.727Z,24.96
2023-06-12T14:46:46.648Z,24.93
2023-06-12T14:48:39.701Z,24.89
2023-06-12T14:50:33.567Z,24.85
2023-06-12T14:52:32.490Z,24.84
2023-06-12T14:54:26.709Z,24.86
2023-06-12T14:56:20.507Z,24.86
2023-06-12T14:58:14.119Z,24.85
2023-06-12T15:00:09.197Z,24.84
2023-06-12T15:02:02.324Z,24.85
2023-06-12T15:03:55.639Z,24.82
2023-06-12T15:05:48.854Z,24.82
2023-06-12T15:07:42.086Z,24.84
2023-06-12T15:09:35.137Z,24.85
2023-06-12T15:11:28.167Z,24.83
2023-06-12T15:13:24.824Z,24.81
2023-06-12T15:15:17.775Z,24.80
2023-06-12T15:17:15.224Z,24.78
2023-06-12T15:19:08.278Z,24.76
2023-06-12T15:21:01.430Z,24.74
2023-06-12T15:22:54.477Z,24.70
2023-06-12T15:24:47.629Z,24.68
2023-06-12T15:26:40.677Z,24.69
2023-06-12T15:28:33.879Z,24.72
2023-06-12T15:30:29.237Z,24.71
2023-06-12T15:32:22.544Z,24.67
2023-06-12T15:34:16.071Z,24.66
2023-06-12T15:36:10.124Z,24.67
2023-06-12T15:38:42.086Z,24.66
2023-06-12T15:40:35.222Z,24.62
2023-06-12T15:42:28.314Z,24.58
2023-06-12T15:44:21.474Z,24.58
2023-06-12T15:46:14.656Z,24.57
2023-06-12T15:48:07.887Z,24.56
2023-06-12T15:50:00.937Z,24.54
2023-06-12T15:51:54.060Z,24.50
2023-06-12T15:53:47.312Z,24.46
2023-06-12T15:55:47.954Z,24.43
2023-06-12T15:57:41.674Z,24.44
2023-06-12T15:59:35.990Z,24.46
2023-06-12T16:01:29.202Z,24.45
2023-06-12T16:03:22.420Z,24.42
2023-06-12T16:05:15.915Z,24.39
2023-06-12T16:07:09.240Z,24.38
2023-06-12T16:09:02.710Z,24.37
2023-06-12T16:11:06.640Z,24.35
2023-06-12T16:13:34.824Z,24.32
2023-06-12T16:16:00.269Z,24.29
2023-06-12T16:17:53.459Z,24.28
2023-06-12T16:19:46.900Z,24.28
2023-06-12T16:21:40.237Z,24.25
2023-06-12T16:23:38.805Z,24.22
2023-06-12T16:25:32.996Z,24.22
2023-06-12T16:27:26.046Z,24.21
2023-06-12T16:29:20.138Z,24.20
2023-06-12T16:31:13.461Z,24.19
2023-06-12T16:33:07.375Z,24.16
2023-06-12T16:35:01.156Z,24.13
2023-06-12T16:36:55.730Z,24.10
2023-06-12T16:38:48.896Z,24.09
2023-06-12T16:40:42.003Z,24.08
2023-06-12T16:42:35.933Z,24.05
2023-06-12T16:44:30.181Z,24.02
2023-06-12T16:46:41.022Z,24.00
2023-06-12T16:48:34.389Z,24.00
2023-06-12T16:50:27.442Z,24.02
2023-06-12T16:52:22.541Z,24.04
2023-06-12T16:54:15.830Z,24.04
2023-06-12T16:56:09.064Z,24.03
2023-06-12T16:58:05.853Z,24.03
2023-06-12T16:59:59.444Z,24.01
2023-06-12T17:01:52.534Z,24.00
2023-06-12T17:03:46.167Z,23.99
2023-06-12T17:05:39.519Z,23.96
2023-06-12T17:07:32.782Z,23.94
2023-06-12T17:09:32.703Z,23.91
2023-06-12T17:11:26.045Z,23.88
2023-06-12T17:13:19.314Z,23.83
2023-06-12T17:15:13.021Z,23.80
2023-06-12T17:17:06.457Z,23.78
2023-06-12T17:18:59.480Z,23.76
2023-06-12T17:20:52.625Z,23.70
2023-06-12T17:22:45.843Z,23.65
2023-06-12T17:24:40.263Z,23.60
2023-06-12T17:26:33.432Z,23.56
2023-06-12T17:28:26.373Z,23.52
2023-06-12T17:30:19.349Z,23.49
2023-06-12T17:32:12.622Z,23.50
2023-06-12T17:34:06.029Z,23.49
2023-06-12T17:35:59.591Z,23.49
2023-06-12T17:37:52.768Z,23.48
2023-06-12T17:39:45.970Z,23.46
2023-06-12T17:41:40.279Z,23.43
2023-06-12T17:43:33.433Z,23.41
2023-06-12T17:45:26.493Z,23.38
2023-06-12T17:47:19.746Z,23.34
2023-06-12T17:49:12.822Z,23.32
2023-06-12T17:51:06.263Z,23.29
2023-06-12T17:52:59.413Z,23.23
2023-06-12T17:54:52.458Z,23.16
2023-06-12T17:56:47.460Z,23.08
2023-06-12T17:58:42.073Z,23.00
2023-06-12T18:00:35.205Z,22.96
2023-06-12T18:02:29.231Z,22.93
2023-06-12T18:04:22.533Z,22.90
2023-06-12T18:06:15.691Z,22.86
2023-06-12T18:08:08.832Z,22.86
2023-06-12T18:10:04.213Z,22.84
2023-06-12T18:11:57.384Z,22.82
2023-06-12T18:13:53.518Z,22.80
2023-06-12T18:15:47.287Z,22.77
2023-06-12T18:17:40.483Z,22.72
2023-06-12T18:19:33.910Z,22.67
2023-06-12T18:21:27.454Z,22.60
2023-06-12T18:23:21.012Z,22.55
2023-06-12T18:25:14.282Z,22.50
2023-06-12T18:27:08.548Z,22.48
2023-06-12T18:29:02.419Z,22.45
2023-06-12T18:30:55.877Z,22.40
2023-06-12T18:32:49.050Z,22.37
2023-06-12T18:34:47.527Z,22.35
2023-06-12T18:36:40.661Z,22.31
2023-06-12T18:38:34.020Z,22.27
2023-06-12T18:40:27.487Z,22.24
2023-06-12T18:42:21.147Z,22.20
2023-06-12T18:44:16.390Z,22.16
2023-06-12T18:46:09.526Z,22.10
2023-06-12T18:48:02.502Z,22.05
2023-06-12T18:49:55.699Z,22.00
2023-06-12T18:51:49.060Z,21.98
2023-06-12T18:53:43.026Z,21.92
2023-06-12T18:55:38.181Z,21.87
2023-06-12T18:57:31.488Z,21.79
2023-06-12T18:59:26.884Z,21.71
2023-06-12T19:01:20.198Z,21.67
2023-06-12T19:03:14.291Z,21.62
2023-06-12T19:05:10.101Z,21.58
2023-06-12T19:07:08.687Z,21.55
2023-06-12T19:09:01.823Z,21.50
2023-06-12T19:11:04.051Z,21.45
2023-06-12T19:13:11.325Z,21.35
2023-06-12T19:15:05.475Z,21.29
2023-06-12T19:16:59.438Z,21.25
2023-06-12T19:18:53.552Z,21.20
2023-06-12T19:20:46.595Z,21.15
2023-06-12T19:22:39.752Z,21.11
2023-06-12T19:24:33.163Z,21.07
2023-06-12T19:26:26.667Z,21.02
2023-06-12T19:28:19.818Z,20.98
2023-06-12T19:30:15.020Z,20.92
2023-06-12T19:32:08.670Z,20.86
2023-06-12T19:34:03.179Z,20.81
2023-06-12T19:35:56.428Z,20.77
2023-06-12T19:37:49.479Z,20.72
2023-06-12T19:39:43.351Z,20.67
2023-06-12T19:41:36.507Z,20.60
2023-06-12T19:43:30.684Z,20.53
2023-06-12T19:45:25.978Z,20.43
2023-06-12T19:47:19.242Z,20.36
2023-06-12T19:49:12.396Z,20.30
2023-06-12T19:51:06.272Z,20.24
2023-06-12T19:53:01.180Z,20.20
2023-06-12T19:54:54.419Z,20.16
2023-06-12T19:56:48.388Z,20.11
2023-06-12T19:58:41.332Z,20.06
2023-06-12T20:00:35.334Z,20.00
2023-06-12T20:02:29.004Z,19.95
2023-06-12T20:04:25.192Z,19.91
2023-06-12T20:06:18.405Z,19.89
2023-06-12T20:08:11.844Z,19.87
2023-06-12T20:10:05.708Z,19.84
2023-06-12T20:11:58.934Z,19.79
2023-06-12T20:13:55.051Z,19.76
2023-06-12T20:15:48.286Z,19.72
2023-06-12T20:17:41.554Z,19.69
2023-06-12T20:19:35.744Z,19.65
2023-06-12T20:21:28.796Z,19.62
2023-06-12T20:23:22.234Z,19.59
2023-06-12T20:25:15.928Z,19.57
2023-06-12T20:27:10.237Z,19.54
2023-06-12T20:29:03.347Z,19.52
2023-06-12T20:30:56.302Z,19.50
2023-06-12T20:32:49.543Z,19.47
2023-06-12T20:34:43.316Z,19.43
2023-06-12T20:36:38.650Z,19.40
2023-06-12T20:38:31.850Z,19.38
2023-06-12T20:40:26.615Z,19.34
2023-06-12T20:42:20.854Z,19.31
2023-06-12T20:44:14.304Z,19.26
2023-06-12T20:46:07.570Z,19.23
2023-06-12T20:48:01.184Z,19.20
2023-06-12T20:49:54.523Z,19.15
2023-06-12T20:51:47.536Z,19.12
2023-06-12T20:53:40.733Z,19.13
2023-06-12T20:55:33.749Z,19.08
2023-06-12T20:57:27.033Z,19.01
2023-06-12T20:59:20.245Z,18.93
2023-06-12T21:01:13.625Z,18.86
2023-06-12T21:03:07.039Z,18.78
2023-06-12T21:05:00.328Z,18.70
2023-06-12T21:06:54.398Z,18.64
2023-06-12T21:08:58.745Z,18.61
2023-06-12T21:10:52.379Z,18.56
2023-06-12T21:12:45.325Z,18.54
2023-06-12T21:14:40.536Z,18.52
2023-06-12T21:16:36.920Z,18.50
2023-06-12T21:18:30.036Z,18.49
2023-06-12T21:20:24.339Z,18.49
2023-06-12T21:22:44.075Z,18.47
2023-06-12T21:24:37.778Z,18.43
2023-06-12T21:26:31.704Z,18.41
2023-06-12T21:28:26.672Z,18.38
2023-06-12T21:30:20.670Z,18.36
2023-06-12T21:32:13.955Z,18.33
2023-06-12T21:34:08.211Z,18.29
2023-06-12T21:36:01.254Z,18.24
2023-06-12T21:37:54.513Z,18.20
2023-06-12T21:39:47.669Z,18.15
2023-06-12T21:41:42.493Z,18.10
2023-06-12T21:43:36.403Z,18.04
2023-06-12T21:45:31.526Z,17.97
2023-06-12T21:47:24.910Z,17.91
2023-06-12T21:49:17.942Z,17.85
2023-06-12T21:51:11.193Z,17.79
2023-06-12T21:53:04.620Z,17.73
2023-06-12T21:54:57.807Z,17.68
2023-06-12T21:56:51.878Z,17.62
2023-06-12T21:58:45.037Z,17.55
2023-06-12T22:00:38.077Z,17.47
2023-06-12T22:02:31.083Z,17.39
2023-06-12T22:04:24.463Z,17.33
2023-06-12T22:06:17.749Z,17.25
2023-06-12T22:08:10.998Z,17.17
2023-06-12T22:10:05.282Z,17.11
2023-06-12T22:11:58.326Z,17.07
2023-06-12T22:13:51.377Z,17.03
2023-06-12T22:15:44.531Z,16.99
2023-06-12T22:17:38.839Z,16.96
2023-06-12T22:19:32.150Z,16.93
2023-06-12T22:21:25.421Z,16.91
2023-06-12T22:23:18.684Z,16.88
2023-06-12T22:25:11.961Z,16.87
2023-06-12T22:27:06.725Z,16.84
2023-06-12T22:28:59.778Z,16.82
2023-06-12T22:31:02.562Z,16.80
2023-06-12T22:32:57.297Z,16.76
2023-06-12T22:34:51.828Z,16.74
2023-06-12T22:36:44.877Z,16.71
2023-06-12T22:38:37.832Z,16.69
2023-06-12T22:40:30.777Z,16.68
2023-06-12T22:42:25.811Z,16.65
2023-06-12T22:44:18.922Z,16.62
2023-06-12T22:46:12.236Z,16.60
2023-06-12T22:48:09.682Z,16.57
2023-06-12T22:50:04.153Z,16.54
2023-06-12T22:52:05.261Z,16.51
2023-06-12T22:53:58.305Z,16.49
2023-06-12T22:55:51.353Z,16.49
2023-06-12T22:57:44.307Z,16.47
2023-06-12T22:59:37.879Z,16.42
2023-06-12T23:01:32.041Z,16.38
2023-06-12T23:03:24.999Z,16.35
2023-06-12T23:05:18.477Z,16.32
2023-06-12T23:07:12.092Z,16.28
2023-06-12T23:09:05.479Z,16.24
2023-06-12T23:11:02.045Z,16.21
2023-06-12T23:12:57.251Z,16.17
2023-06-12T23:14:50.361Z,16.14
2023-06-12T23:16:44.739Z,16.08
2023-06-12T23:18:39.540Z,16.04
2023-06-12T23:20:33.042Z,15.99
2023-06-12T23:22:30.584Z,15.94
2023-06-12T23:24:27.362Z,15.91
2023-06-12T23:26:24.969Z,15.85
2023-06-12T23:28:18.319Z,15.80
2023-06-12T23:30:12.344Z,15.77
2023-06-12T23:32:06.249Z,15.72
2023-06-12T23:33:59.249Z,15.67
2023-06-12T23:35:53.081Z,15.63
2023-06-12T23:37:46.530Z,15.63
2023-06-12T23:39:39.887Z,15.65
2023-06-12T23:41:32.831Z,15.68
2023-06-12T23:43:26.093Z,15.70
2023-06-12T23:45:19.145Z,15.73
2023-06-12T23:47:12.121Z,15.74
2023-06-12T23:49:05.240Z,15.75
2023-06-12T23:50:58.198Z,15.73
2023-06-12T23:52:51.351Z,15.71
2023-06-12T23:54:44.595Z,15.69
2023-06-12T23:56:38.058Z,15.65
2023-06-12T23:58:31.629Z,15.60
